This is the latest recevied weather packets stored in our database for station/object HS5FXK-3. If no packets are shown the sender has not sent any weather packets the latest 10 day(s).
| Time | Temp. | Humidity | Pressure | Rain* | Wind** | Luminosity | Snow |
|---|---|---|---|---|---|---|---|
| 1777926188 | 26.11° C | 99% | 980 hPa | - | - | 0 W/m² | - |
| 1777925329 | 26.11° C | 99% | 980 hPa | - | - | 0 W/m² | - |
| 1777924417 | 26.67° C | 99% | 980 hPa | - | - | 0 W/m² | - |
| 1777923592 | 26.67° C | 99% | 981 hPa | - | - | 0 W/m² | - |
| 1777922679 | 26.11° C | 99% | 981 hPa | - | - | 0 W/m² | - |
| 1777921767 | 26.11° C | 99% | 981 hPa | - | - | 0 W/m² | - |
| 1777920854 | 26.11° C | 99% | 981 hPa | - | - | 0 W/m² | - |
| 1777919942 | 26.11° C | 99% | 981 hPa | - | - | 0 W/m² | - |
| 1777919029 | 26.11° C | 99% | 981 hPa | - | - | 0 W/m² | - |
| 1777918117 | 26.11° C | 99% | 981 hPa | - | - | 0 W/m² | - |
| 1777917204 | 26.11° C | 99% | 982 hPa | - | - | 0 W/m² | - |
| 1777916292 | 26.11° C | 97% | 982 hPa | - | - | 0 W/m² | - |
| 1777915379 | 26.11° C | 99% | 982 hPa | - | - | 0 W/m² | - |
| 1777914466 | 26.67° C | 99% | 982 hPa | - | - | 0 W/m² | - |
| 1777913554 | 26.67° C | 97% | 983 hPa | - | - | 0 W/m² | - |
| 1777912642 | 26.67° C | 97% | 983 hPa | - | - | 0 W/m² | - |
| 1777911729 | 27.22° C | 95% | 982 hPa | - | - | 0 W/m² | - |
| 1777910817 | 26.67° C | 98% | 983 hPa | - | - | 0 W/m² | - |
| 1777909905 | 27.78° C | 95% | 982 hPa | - | - | 0 W/m² | - |
| 1777908992 | 28.89° C | 80% | 981 hPa | - | - | 0 W/m² | - |
| 1777908080 | 29.44° C | 80% | 980 hPa | - | - | 0 W/m² | - |
| 1777907168 | 30° C | 69% | 980 hPa | - | - | 0 W/m² | - |
| 1777906255 | 30.56° C | 62% | 979 hPa | - | - | 0 W/m² | - |
| 1777905343 | 31.11° C | 61% | 979 hPa | - | - | 0 W/m² | - |
| 1777904430 | 31.67° C | 59% | 978 hPa | - | - | 0 W/m² | - |
* Rain since midnight (hover to see other rain measurements)
** Current wind speed in m/s (hover to see current wind gust speed)